createdAt,value
2023-01-12T00:01:53.906Z,7.68
2023-01-12T00:04:21.013Z,7.15
2023-01-12T00:06:48.387Z,6.78
2023-01-12T00:09:15.354Z,6.68
2023-01-12T00:11:42.255Z,7.30
2023-01-12T00:14:09.934Z,8.98
2023-01-12T00:16:46.642Z,8.27
2023-01-12T00:19:18.562Z,8.55
2023-01-12T00:22:07.886Z,8.75
2023-01-12T00:24:39.193Z,8.48
2023-01-12T00:27:08.520Z,8.60
2023-01-12T00:29:36.538Z,8.95
2023-01-12T00:32:04.488Z,8.60
2023-01-12T00:34:31.297Z,8.43
2023-01-12T00:37:00.042Z,9.32
2023-01-12T00:39:26.849Z,9.35
2023-01-12T00:42:12.199Z,10.10
2023-01-12T00:44:57.985Z,13.05
2023-01-12T00:47:24.908Z,13.70
2023-01-12T00:49:51.740Z,15.88
2023-01-12T00:52:30.403Z,14.73
2023-01-12T00:54:58.617Z,14.98
2023-01-12T00:57:25.424Z,15.77
2023-01-12T00:59:55.315Z,13.48
2023-01-12T01:02:23.225Z,13.43
2023-01-12T01:04:50.718Z,13.50
2023-01-12T01:07:18.559Z,14.25
2023-01-12T01:09:45.611Z,14.60
2023-01-12T01:12:12.380Z,15.18
2023-01-12T01:14:39.378Z,15.60
2023-01-12T01:17:06.429Z,15.65
2023-01-12T01:19:33.305Z,14.50
2023-01-12T01:22:00.171Z,15.43
2023-01-12T01:24:27.708Z,14.55
2023-01-12T01:26:54.489Z,14.77
2023-01-12T01:29:21.287Z,15.10
2023-01-12T01:31:48.175Z,15.80
2023-01-12T01:34:15.365Z,14.52
2023-01-12T01:36:42.897Z,14.95
2023-01-12T01:39:09.785Z,15.10
2023-01-12T01:41:36.544Z,15.32
2023-01-12T01:44:06.278Z,14.63
2023-01-12T01:46:38.902Z,14.80
2023-01-12T01:49:25.383Z,13.20
2023-01-12T01:51:54.946Z,14.27
2023-01-12T01:54:22.558Z,14.68
2023-01-12T01:56:51.545Z,14.27
2023-01-12T01:59:23.117Z,15.25
2023-01-12T02:01:50.652Z,14.90
2023-01-12T02:04:17.745Z,14.95
2023-01-12T02:06:44.558Z,14.32
2023-01-12T02:09:19.592Z,14.45
2023-01-12T02:12:05.732Z,15.23
2023-01-12T02:14:52.285Z,13.27
2023-01-12T02:17:40.982Z,12.32
2023-01-12T02:20:55.673Z,12.05
2023-01-12T02:23:40.655Z,11.48
2023-01-12T02:26:19.407Z,11.65
2023-01-12T02:28:49.141Z,10.25
2023-01-12T02:31:44.186Z,10.00
2023-01-12T02:34:28.606Z,9.88
2023-01-12T02:37:07.564Z,10.02
2023-01-12T02:39:41.578Z,10.20
2023-01-12T02:42:51.651Z,10.45
2023-01-12T02:45:33.771Z,9.45
2023-01-12T02:48:15.886Z,9.38
2023-01-12T02:51:21.156Z,9.43
2023-01-12T02:53:55.319Z,10.65
2023-01-12T02:56:30.048Z,9.95
2023-01-12T02:58:59.368Z,11.02
2023-01-12T03:01:29.168Z,11.13
2023-01-12T03:04:01.306Z,10.68
2023-01-12T03:06:43.752Z,11.98
2023-01-12T03:09:12.025Z,13.32
2023-01-12T03:11:42.993Z,16.48
2023-01-12T03:14:11.114Z,15.05
2023-01-12T03:16:40.341Z,17.02
2023-01-12T03:19:16.816Z,17.67
2023-01-12T03:21:53.643Z,18.25
2023-01-12T03:24:27.740Z,19.92
2023-01-12T03:27:01.943Z,21.23
2023-01-12T03:29:31.770Z,21.63
2023-01-12T03:31:59.415Z,26.98
2023-01-12T03:34:26.932Z,27.55
2023-01-12T03:37:10.897Z,26.33
2023-01-12T03:40:08.302Z,25.88
2023-01-12T03:42:56.555Z,24.88
2023-01-12T03:45:31.639Z,26.42
2023-01-12T03:48:06.108Z,24.98
2023-01-12T03:50:59.510Z,23.60
2023-01-12T03:53:28.278Z,28.70
2023-01-12T03:55:59.577Z,29.23
2023-01-12T03:58:26.463Z,33.20
2023-01-12T04:00:53.382Z,31.15
2023-01-12T04:03:20.368Z,33.13
2023-01-12T04:05:47.331Z,33.78
2023-01-12T04:08:16.208Z,32.35
2023-01-12T04:10:43.533Z,32.25
2023-01-12T04:13:10.379Z,31.10
2023-01-12T04:15:42.253Z,31.17
2023-01-12T04:18:12.831Z,32.47
2023-01-12T04:20:40.021Z,30.73
2023-01-12T04:23:07.510Z,30.48
2023-01-12T04:25:35.198Z,29.45
2023-01-12T04:28:05.107Z,25.67
2023-01-12T04:30:33.530Z,24.70
2023-01-12T04:33:05.965Z,25.67
2023-01-12T04:35:32.853Z,25.10
2023-01-12T04:38:04.779Z,24.33
2023-01-12T04:40:31.564Z,23.42
2023-01-12T04:43:01.335Z,26.48
2023-01-12T04:45:40.379Z,25.15
2023-01-12T04:48:10.691Z,23.83
2023-01-12T04:50:38.845Z,22.98
2023-01-12T04:53:10.734Z,22.65
2023-01-12T04:55:39.838Z,20.85
2023-01-12T04:58:06.673Z,22.52
2023-01-12T05:00:33.695Z,23.20
2023-01-12T05:03:02.481Z,22.80
2023-01-12T05:05:32.159Z,22.48
2023-01-12T05:08:21.554Z,23.25
2023-01-12T05:10:57.005Z,22.27
2023-01-12T05:13:26.253Z,22.15
2023-01-12T05:15:53.008Z,22.30
2023-01-12T05:18:20.557Z,23.02
2023-01-12T05:20:47.398Z,23.13
2023-01-12T05:23:14.245Z,23.20
2023-01-12T05:25:41.027Z,23.77
2023-01-12T05:28:08.954Z,23.13
2023-01-12T05:30:35.797Z,25.17
2023-01-12T05:33:02.605Z,24.30
2023-01-12T05:35:29.401Z,24.05
2023-01-12T05:37:57.477Z,24.35
2023-01-12T05:40:24.867Z,25.23
2023-01-12T05:43:10.812Z,23.23
2023-01-12T05:45:37.661Z,23.55
2023-01-12T05:48:05.111Z,22.88
2023-01-12T05:50:32.078Z,21.00
2023-01-12T05:53:08.887Z,22.98
2023-01-12T05:55:38.094Z,23.00
2023-01-12T05:58:04.946Z,24.08
2023-01-12T06:00:32.116Z,21.35
2023-01-12T06:02:59.388Z,24.92
2023-01-12T06:05:26.335Z,25.73
2023-01-12T06:07:53.163Z,26.20
2023-01-12T06:10:20.124Z,26.20
2023-01-12T06:13:08.650Z,26.40
2023-01-12T06:15:35.479Z,29.80
2023-01-12T06:18:02.316Z,26.98
2023-01-12T06:20:29.151Z,26.77
2023-01-12T06:22:55.905Z,27.10
2023-01-12T06:25:22.710Z,28.23
2023-01-12T06:27:49.531Z,28.95
2023-01-12T06:30:16.378Z,28.98
2023-01-12T06:32:43.361Z,29.98
2023-01-12T06:35:18.702Z,28.60
2023-01-12T06:37:48.867Z,27.67
2023-01-12T06:40:15.746Z,27.33
2023-01-12T06:42:42.582Z,28.00
2023-01-12T06:45:10.527Z,29.10
2023-01-12T06:47:48.814Z,26.45
2023-01-12T06:50:16.246Z,26.73
2023-01-12T06:52:43.084Z,27.85
2023-01-12T06:55:09.959Z,23.80
2023-01-12T06:57:36.797Z,24.88
2023-01-12T07:00:04.742Z,24.08
2023-01-12T07:02:32.127Z,21.95
2023-01-12T07:04:58.867Z,21.42
2023-01-12T07:07:25.715Z,24.50
2023-01-12T07:09:52.496Z,24.40
2023-01-12T07:12:19.278Z,24.80
2023-01-12T07:14:46.101Z,23.30
2023-01-12T07:17:12.910Z,22.92
2023-01-12T07:19:41.452Z,22.73
2023-01-12T07:22:08.530Z,22.35
2023-01-12T07:24:35.731Z,21.80
2023-01-12T07:27:02.588Z,23.05
2023-01-12T07:29:29.610Z,22.00
2023-01-12T07:31:56.639Z,23.23
2023-01-12T07:34:23.543Z,24.63
2023-01-12T07:36:52.334Z,24.77
2023-01-12T07:39:19.624Z,22.55
2023-01-12T07:42:05.270Z,23.15
2023-01-12T07:44:32.143Z,22.65
2023-01-12T07:47:00.254Z,24.80
2023-01-12T07:49:27.931Z,25.27
2023-01-12T07:51:55.979Z,24.50
2023-01-12T07:54:23.934Z,24.27
2023-01-12T07:56:50.785Z,24.60
2023-01-12T07:59:17.894Z,22.75
2023-01-12T08:01:44.789Z,19.90
2023-01-12T08:04:11.634Z,20.98
2023-01-12T08:06:38.537Z,21.50
2023-01-12T08:09:05.527Z,22.58
2023-01-12T08:11:32.360Z,23.48
2023-01-12T08:14:00.059Z,24.33
2023-01-12T08:16:33.516Z,22.30
2023-01-12T08:19:08.947Z,23.08
2023-01-12T08:21:46.027Z,20.95
2023-01-12T08:24:17.786Z,20.65
2023-01-12T08:26:47.062Z,20.55
2023-01-12T08:29:58.833Z,20.88
2023-01-12T08:32:29.527Z,21.85
2023-01-12T08:35:01.769Z,20.75
2023-01-12T08:37:32.694Z,19.98
2023-01-12T08:39:59.757Z,20.08
2023-01-12T08:42:31.708Z,20.10
2023-01-12T08:44:58.799Z,20.85
2023-01-12T08:47:28.226Z,18.88
2023-01-12T08:49:55.589Z,19.45
2023-01-12T08:52:22.810Z,18.35
2023-01-12T08:54:50.238Z,19.50
2023-01-12T08:57:19.279Z,18.27
2023-01-12T08:59:46.102Z,17.92
2023-01-12T09:02:14.387Z,18.13
2023-01-12T09:04:41.716Z,18.73
2023-01-12T09:07:09.866Z,19.55
2023-01-12T09:09:37.076Z,17.77
2023-01-12T09:12:04.174Z,19.23
2023-01-12T09:14:31.210Z,18.00
2023-01-12T09:16:58.666Z,14.63
2023-01-12T09:19:25.539Z,13.35
2023-01-12T09:21:52.356Z,17.08
2023-01-12T09:24:19.183Z,16.17
2023-01-12T09:26:47.125Z,13.93
2023-01-12T09:29:14.904Z,13.52
2023-01-12T09:31:44.811Z,12.98
2023-01-12T09:34:11.797Z,12.65
2023-01-12T09:36:40.161Z,11.20
2023-01-12T09:39:15.385Z,10.95
2023-01-12T09:42:06.575Z,8.70
2023-01-12T09:45:21.585Z,7.22
2023-01-12T09:48:02.231Z,5.78
2023-01-12T09:50:40.550Z,6.05
2023-01-12T09:53:18.620Z,5.75
2023-01-12T09:55:53.948Z,4.60
2023-01-12T09:58:32.358Z,4.72
2023-01-12T10:01:01.550Z,4.70
2023-01-12T10:03:35.869Z,6.05
2023-01-12T10:06:02.746Z,4.57
2023-01-12T10:08:33.891Z,2.50
2023-01-12T10:11:27.864Z,1.83
2023-01-12T10:14:24.513Z,1.73
2023-01-12T10:17:02.488Z,1.73
2023-01-12T10:19:59.679Z,1.60
2023-01-12T10:22:39.881Z,1.23
2023-01-12T10:25:21.596Z,1.40
2023-01-12T10:27:50.893Z,2.10
2023-01-12T10:30:28.510Z,1.38
2023-01-12T10:32:55.252Z,1.55
2023-01-12T10:35:24.200Z,1.30
2023-01-12T10:37:57.683Z,1.27
2023-01-12T10:40:33.421Z,1.70
2023-01-12T10:43:20.001Z,1.63
2023-01-12T10:46:10.040Z,1.67
2023-01-12T10:48:39.180Z,1.20
2023-01-12T10:51:08.657Z,1.60
2023-01-12T10:53:55.855Z,1.38
2023-01-12T10:56:44.033Z,1.90
2023-01-12T10:59:13.566Z,1.25
2023-01-12T11:02:06.940Z,1.50
2023-01-12T11:04:42.802Z,1.42
2023-01-12T11:07:12.879Z,1.33
2023-01-12T11:09:41.289Z,1.20
2023-01-12T11:12:20.207Z,1.10
2023-01-12T11:14:58.449Z,1.50
2023-01-12T11:17:49.608Z,2.13
2023-01-12T11:20:29.262Z,1.70
2023-01-12T11:22:59.523Z,1.00
2023-01-12T11:25:28.139Z,1.25
2023-01-12T11:28:24.073Z,1.27
2023-01-12T11:30:56.513Z,1.20
2023-01-12T11:33:55.239Z,1.83
2023-01-12T11:36:31.660Z,1.60
2023-01-12T11:39:08.538Z,1.35
2023-01-12T11:42:16.228Z,1.40
2023-01-12T11:44:53.176Z,1.15
2023-01-12T11:47:41.705Z,1.17
2023-01-12T11:50:17.219Z,1.02
2023-01-12T11:52:45.259Z,1.40
2023-01-12T11:55:22.927Z,0.98
2023-01-12T11:58:06.647Z,1.45
2023-01-12T12:00:59.148Z,1.65
2023-01-12T12:03:31.328Z,2.40
2023-01-12T12:06:18.377Z,1.35
2023-01-12T12:09:11.424Z,1.17
2023-01-12T12:11:55.850Z,2.05
2023-01-12T12:14:47.450Z,1.45
2023-01-12T12:17:49.651Z,1.90
2023-01-12T12:20:19.920Z,1.88
2023-01-12T12:23:02.264Z,1.15
2023-01-12T12:25:35.058Z,1.30
2023-01-12T12:28:07.744Z,1.30
2023-01-12T12:30:59.394Z,1.42
2023-01-12T12:34:00.310Z,0.88
2023-01-12T12:36:34.716Z,1.10
2023-01-12T12:39:21.437Z,1.40
2023-01-12T12:42:27.527Z,1.88
2023-01-12T12:45:19.028Z,1.60
2023-01-12T12:48:08.027Z,1.42
2023-01-12T12:50:50.269Z,1.45
2023-01-12T12:53:30.018Z,1.20
2023-01-12T12:56:07.277Z,1.40
2023-01-12T12:58:54.471Z,1.05
2023-01-12T13:01:21.446Z,1.38
2023-01-12T13:03:51.151Z,2.13
2023-01-12T13:06:36.182Z,1.17
2023-01-12T13:09:08.765Z,1.17
2023-01-12T13:11:53.727Z,1.20
2023-01-12T13:14:33.192Z,1.30
2023-01-12T13:17:19.998Z,1.20
2023-01-12T13:20:08.276Z,1.98
2023-01-12T13:22:50.067Z,2.13
2023-01-12T13:25:16.764Z,1.73
2023-01-12T13:28:01.581Z,1.20
2023-01-12T13:30:46.729Z,1.60
2023-01-12T13:33:23.913Z,1.83
2023-01-12T13:35:50.669Z,1.70
2023-01-12T13:38:39.049Z,1.27
2023-01-12T13:41:15.286Z,1.30
2023-01-12T13:43:52.673Z,1.55
2023-01-12T13:46:27.463Z,1.17
2023-01-12T13:48:56.365Z,1.55
2023-01-12T13:51:29.269Z,1.55
2023-01-12T13:54:09.992Z,1.77
2023-01-12T13:56:37.574Z,1.50
2023-01-12T13:59:07.817Z,1.80
2023-01-12T14:01:37.150Z,1.52
2023-01-12T14:04:20.421Z,1.77
2023-01-12T14:07:22.904Z,1.33
2023-01-12T14:10:22.028Z,1.52
2023-01-12T14:13:01.183Z,2.42
2023-01-12T14:16:00.949Z,1.42
2023-01-12T14:18:40.985Z,1.00
2023-01-12T14:21:26.893Z,2.33
2023-01-12T14:23:54.568Z,2.67
2023-01-12T14:26:24.244Z,6.47
2023-01-12T14:28:52.481Z,1.50
2023-01-12T14:31:24.995Z,1.75
2023-01-12T14:34:02.654Z,1.65
2023-01-12T14:36:41.250Z,2.78
2023-01-12T14:39:15.121Z,3.17
2023-01-12T14:42:09.039Z,3.25
2023-01-12T14:44:58.414Z,1.30
2023-01-12T14:47:33.852Z,1.90
2023-01-12T14:50:13.684Z,1.98
2023-01-12T14:52:43.168Z,1.80
2023-01-12T14:55:26.601Z,2.13
2023-01-12T14:57:59.861Z,1.70
2023-01-12T15:03:01.714Z,1.80
2023-01-12T15:05:30.442Z,1.87
2023-01-12T15:07:59.211Z,1.55
2023-01-12T15:10:30.556Z,1.95
2023-01-12T15:13:19.091Z,2.08
2023-01-12T15:16:04.815Z,2.00
2023-01-12T15:18:52.612Z,2.08
2023-01-12T15:21:43.152Z,1.90
2023-01-12T15:24:34.596Z,2.28
2023-01-12T15:27:06.288Z,2.58
2023-01-12T15:29:33.453Z,2.30
2023-01-12T15:32:00.780Z,2.03
2023-01-12T15:34:28.067Z,2.40
2023-01-12T15:36:54.899Z,2.30
2023-01-12T15:39:21.753Z,3.03
2023-01-12T15:42:07.306Z,2.20
2023-01-12T15:44:34.065Z,2.88
2023-01-12T15:47:00.825Z,2.55
2023-01-12T15:49:27.700Z,2.45
2023-01-12T15:51:54.630Z,3.97
2023-01-12T15:54:22.016Z,2.95
2023-01-12T15:56:49.130Z,2.40
2023-01-12T15:59:16.614Z,3.00
2023-01-12T16:01:46.732Z,2.92
2023-01-12T16:04:42.075Z,2.67
2023-01-12T16:07:09.314Z,3.50
2023-01-12T16:09:36.270Z,2.92
2023-01-12T16:12:03.092Z,3.80
2023-01-12T16:14:29.867Z,3.20
2023-01-12T16:16:56.649Z,3.20
2023-01-12T16:19:23.664Z,3.80
2023-01-12T16:21:50.659Z,3.47
2023-01-12T16:24:17.459Z,4.07
2023-01-12T16:26:45.464Z,3.83
2023-01-12T16:29:12.439Z,4.28
2023-01-12T16:31:39.628Z,3.50
2023-01-12T16:34:06.626Z,4.40
2023-01-12T16:36:33.870Z,3.83
2023-01-12T16:39:00.715Z,4.13
2023-01-12T16:41:27.559Z,4.05
2023-01-12T16:43:57.725Z,4.55
2023-01-12T16:46:24.539Z,4.53
2023-01-12T16:48:52.593Z,4.50
2023-01-12T16:51:19.811Z,5.43
2023-01-12T16:53:47.508Z,5.05
2023-01-12T16:56:17.186Z,4.47
2023-01-12T16:58:48.700Z,4.32
2023-01-12T17:01:18.251Z,4.80
2023-01-12T17:03:45.432Z,3.75
2023-01-12T17:06:16.804Z,4.88
2023-01-12T17:08:43.879Z,5.55
2023-01-12T17:11:15.957Z,5.05
2023-01-12T17:13:43.200Z,5.85
2023-01-12T17:16:12.271Z,5.20
2023-01-12T17:18:39.801Z,5.30
2023-01-12T17:21:13.335Z,5.57
2023-01-12T17:23:41.977Z,5.00
2023-01-12T17:26:13.118Z,6.38
2023-01-12T17:28:40.888Z,5.70
2023-01-12T17:31:10.122Z,6.35
2023-01-12T17:33:37.770Z,6.32
2023-01-12T17:36:06.573Z,5.28
2023-01-12T17:38:34.895Z,5.47
2023-01-12T17:41:30.584Z,5.28
2023-01-12T17:43:57.846Z,6.57
2023-01-12T17:46:25.207Z,6.25
2023-01-12T17:48:52.154Z,6.90
2023-01-12T17:51:19.048Z,6.82
2023-01-12T17:53:45.968Z,6.90
2023-01-12T17:56:13.890Z,8.15
2023-01-12T17:58:43.895Z,7.28
2023-01-12T18:01:14.282Z,7.95
2023-01-12T18:03:41.174Z,7.38
2023-01-12T18:06:12.100Z,8.32
2023-01-12T18:08:45.837Z,7.43
2023-01-12T18:11:12.894Z,8.65
2023-01-12T18:13:41.445Z,9.05
2023-01-12T18:16:10.747Z,10.43
2023-01-12T18:18:40.127Z,9.40
2023-01-12T18:21:09.268Z,9.52
2023-01-12T18:23:38.756Z,9.68
2023-01-12T18:26:11.835Z,10.30
2023-01-12T18:28:38.763Z,10.52
2023-01-12T18:31:28.643Z,11.48
2023-01-12T18:34:06.273Z,11.68
2023-01-12T18:36:35.367Z,10.65
2023-01-12T18:39:02.646Z,11.40
2023-01-12T18:41:47.969Z,10.70
2023-01-12T18:44:14.795Z,12.05
2023-01-12T18:47:02.239Z,11.20
2023-01-12T18:49:34.177Z,11.15
2023-01-12T18:52:20.763Z,11.75
2023-01-12T18:54:48.321Z,12.02
2023-01-12T18:57:19.203Z,11.68
2023-01-12T18:59:46.673Z,11.98
2023-01-12T19:02:14.813Z,12.75
2023-01-12T19:04:51.056Z,12.20
2023-01-12T19:07:46.061Z,12.15
2023-01-12T19:10:12.790Z,11.40
2023-01-12T19:12:40.359Z,12.85
2023-01-12T19:15:27.791Z,11.63
2023-01-12T19:17:54.525Z,13.10
2023-01-12T19:20:21.323Z,11.82
2023-01-12T19:23:06.595Z,13.18
2023-01-12T19:25:51.598Z,13.95
2023-01-12T19:28:38.128Z,13.18
2023-01-12T19:31:12.210Z,12.27
2023-01-12T19:33:39.710Z,13.10
2023-01-12T19:36:09.133Z,13.50
2023-01-12T19:38:36.353Z,13.20
2023-01-12T19:41:14.513Z,12.95
2023-01-12T19:43:45.397Z,13.43
2023-01-12T19:46:15.700Z,12.05
2023-01-12T19:48:42.518Z,13.60
2023-01-12T19:51:11.352Z,13.05
2023-01-12T19:53:40.205Z,13.55
2023-01-12T19:56:14.597Z,11.55
2023-01-12T19:58:42.296Z,11.82
2023-01-12T20:01:09.333Z,12.32
2023-01-12T20:03:36.359Z,13.70
2023-01-12T20:06:07.604Z,13.50
2023-01-12T20:08:34.356Z,14.20
2023-01-12T20:11:04.798Z,13.93
2023-01-12T20:13:32.773Z,14.23
2023-01-12T20:15:59.853Z,13.27
2023-01-12T20:18:29.263Z,13.18
2023-01-12T20:20:59.051Z,13.05
2023-01-12T20:23:25.950Z,12.57
2023-01-12T20:25:53.047Z,13.07
2023-01-12T20:28:20.107Z,12.98
2023-01-12T20:30:46.985Z,13.82
2023-01-12T20:33:14.015Z,12.65
2023-01-12T20:35:46.416Z,14.30
2023-01-12T20:38:15.813Z,13.93
2023-01-12T20:40:43.657Z,14.90
2023-01-12T20:43:10.631Z,15.20
2023-01-12T20:45:37.499Z,15.65
2023-01-12T20:48:04.655Z,15.80
2023-01-12T20:50:31.439Z,15.93
2023-01-12T20:52:58.320Z,15.63
2023-01-12T20:55:25.467Z,17.20
2023-01-12T20:57:52.887Z,15.63
2023-01-12T21:00:19.945Z,16.83
2023-01-12T21:02:46.867Z,16.42
2023-01-12T21:05:13.594Z,15.75
2023-01-12T21:07:40.388Z,16.73
2023-01-12T21:10:09.116Z,15.93
2023-01-12T21:12:36.319Z,17.83
2023-01-12T21:15:03.950Z,18.77
2023-01-12T21:17:31.744Z,15.98
2023-01-12T21:19:58.615Z,18.90
2023-01-12T21:22:25.406Z,17.65
2023-01-12T21:24:52.114Z,17.13
2023-01-12T21:27:19.009Z,17.77
2023-01-12T21:29:46.085Z,19.20
2023-01-12T21:32:13.105Z,21.75
2023-01-12T21:34:39.878Z,19.33
2023-01-12T21:37:07.759Z,18.02
2023-01-12T21:39:34.697Z,20.77
2023-01-12T21:42:20.045Z,21.77
2023-01-12T21:44:46.844Z,19.52
2023-01-12T21:47:13.616Z,20.98
2023-01-12T21:49:40.361Z,19.75
2023-01-12T21:52:07.914Z,19.05
2023-01-12T21:54:34.997Z,20.58
2023-01-12T21:57:01.729Z,20.95
2023-01-12T21:59:28.657Z,20.42
2023-01-12T22:01:55.603Z,20.48
2023-01-12T22:04:22.580Z,21.38
2023-01-12T22:06:52.611Z,20.88
2023-01-12T22:09:19.810Z,20.02
2023-01-12T22:11:46.680Z,19.50
2023-01-12T22:14:13.628Z,20.05
2023-01-12T22:16:40.500Z,20.60
2023-01-12T22:19:07.285Z,19.20
2023-01-12T22:21:34.294Z,19.52
2023-01-12T22:24:01.068Z,19.83
2023-01-12T22:26:29.850Z,19.00
2023-01-12T22:28:56.753Z,18.92
2023-01-12T22:31:24.976Z,20.05
2023-01-12T22:33:57.621Z,20.27
2023-01-12T22:36:24.639Z,21.60
2023-01-12T22:38:51.561Z,19.92
2023-01-12T22:41:21.862Z,20.08
2023-01-12T22:43:52.533Z,20.27
2023-01-12T22:46:22.269Z,20.77
2023-01-12T22:48:53.083Z,21.92
2023-01-12T22:51:21.037Z,21.13
2023-01-12T22:53:48.494Z,21.10
2023-01-12T22:56:15.314Z,21.50
2023-01-12T22:58:47.758Z,23.48
2023-01-12T23:01:15.854Z,20.98
2023-01-12T23:03:45.165Z,24.98
2023-01-12T23:06:14.726Z,24.88
2023-01-12T23:08:42.276Z,25.63
2023-01-12T23:11:14.910Z,26.35
2023-01-12T23:13:43.798Z,24.65
2023-01-12T23:16:12.098Z,26.30
2023-01-12T23:18:40.807Z,26.35
2023-01-12T23:21:14.269Z,24.58
2023-01-12T23:23:46.143Z,25.63
2023-01-12T23:26:15.274Z,29.15
2023-01-12T23:28:50.095Z,29.40
2023-01-12T23:31:22.287Z,27.92
2023-01-12T23:33:49.747Z,29.63
2023-01-12T23:36:24.914Z,32.20
2023-01-12T23:38:55.850Z,31.15
2023-01-12T23:41:25.237Z,30.80
2023-01-12T23:43:53.290Z,30.85
2023-01-12T23:46:22.578Z,29.00
2023-01-12T23:48:50.568Z,30.13
2023-01-12T23:51:17.519Z,28.13
2023-01-12T23:53:45.341Z,29.63
2023-01-12T23:56:15.509Z,28.95
2023-01-12T23:58:43.307Z,29.55
